sensor_id;sensor_type;location;lat;lon;timestamp;P1;durP1;ratioP1;P2;durP2;ratioP2
28335;SDS011;15592;53.656;7.276;2023-02-01T00:01:31;26.98;;;4.95;;
28335;SDS011;15592;53.656;7.276;2023-02-01T00:03:56;27.20;;;5.13;;
28335;SDS011;15592;53.656;7.276;2023-02-01T00:06:22;24.25;;;4.78;;
28335;SDS011;15592;53.656;7.276;2023-02-01T00:08:47;24.23;;;6.03;;
28335;SDS011;15592;53.656;7.276;2023-02-01T00:11:13;25.05;;;4.85;;
28335;SDS011;15592;53.656;7.276;2023-02-01T00:13:39;24.20;;;5.32;;
28335;SDS011;15592;53.656;7.276;2023-02-01T00:16:10;24.38;;;5.28;;
28335;SDS011;15592;53.656;7.276;2023-02-01T00:18:38;28.20;;;5.60;;
28335;SDS011;15592;53.656;7.276;2023-02-01T00:21:04;30.38;;;6.13;;
28335;SDS011;15592;53.656;7.276;2023-02-01T00:23:33;34.30;;;7.40;;
28335;SDS011;15592;53.656;7.276;2023-02-01T00:26:01;27.35;;;6.70;;
28335;SDS011;15592;53.656;7.276;2023-02-01T00:28:27;27.65;;;6.10;;
28335;SDS011;15592;53.656;7.276;2023-02-01T00:30:59;27.33;;;5.93;;
28335;SDS011;15592;53.656;7.276;2023-02-01T00:33:27;25.00;;;5.53;;
28335;SDS011;15592;53.656;7.276;2023-02-01T00:35:57;24.35;;;5.53;;
28335;SDS011;15592;53.656;7.276;2023-02-01T00:40:49;28.00;;;4.85;;
28335;SDS011;15592;53.656;7.276;2023-02-01T00:43:15;31.70;;;5.85;;
28335;SDS011;15592;53.656;7.276;2023-02-01T00:45:40;37.80;;;6.82;;
28335;SDS011;15592;53.656;7.276;2023-02-01T00:48:06;36.30;;;5.90;;
28335;SDS011;15592;53.656;7.276;2023-02-01T00:50:31;30.70;;;5.80;;
28335;SDS011;15592;53.656;7.276;2023-02-01T00:52:57;31.77;;;6.43;;
28335;SDS011;15592;53.656;7.276;2023-02-01T00:55:23;36.33;;;6.78;;
28335;SDS011;15592;53.656;7.276;2023-02-01T00:57:48;37.92;;;6.70;;
28335;SDS011;15592;53.656;7.276;2023-02-01T01:00:14;31.65;;;6.13;;
28335;SDS011;15592;53.656;7.276;2023-02-01T01:02:41;35.30;;;6.13;;
28335;SDS011;15592;53.656;7.276;2023-02-01T01:05:07;42.00;;;6.72;;
28335;SDS011;15592;53.656;7.276;2023-02-01T01:07:32;29.15;;;6.13;;
28335;SDS011;15592;53.656;7.276;2023-02-01T01:09:58;49.17;;;7.50;;
28335;SDS011;15592;53.656;7.276;2023-02-01T01:12:23;34.53;;;6.50;;
28335;SDS011;15592;53.656;7.276;2023-02-01T01:14:49;41.50;;;7.68;;
28335;SDS011;15592;53.656;7.276;2023-02-01T01:17:15;43.75;;;7.25;;
28335;SDS011;15592;53.656;7.276;2023-02-01T01:19:40;36.45;;;6.75;;
28335;SDS011;15592;53.656;7.276;2023-02-01T01:22:06;31.45;;;6.20;;
28335;SDS011;15592;53.656;7.276;2023-02-01T01:24:31;37.40;;;5.90;;
28335;SDS011;15592;53.656;7.276;2023-02-01T01:26:57;33.13;;;5.57;;
28335;SDS011;15592;53.656;7.276;2023-02-01T01:29:23;34.30;;;8.32;;
28335;SDS011;15592;53.656;7.276;2023-02-01T01:31:48;36.30;;;6.50;;
28335;SDS011;15592;53.656;7.276;2023-02-01T01:34:14;28.65;;;6.82;;
28335;SDS011;15592;53.656;7.276;2023-02-01T01:36:39;28.33;;;6.22;;
28335;SDS011;15592;53.656;7.276;2023-02-01T01:39:05;45.53;;;7.88;;
28335;SDS011;15592;53.656;7.276;2023-02-01T01:41:31;36.95;;;6.60;;
28335;SDS011;15592;53.656;7.276;2023-02-01T01:43:58;33.50;;;6.88;;
28335;SDS011;15592;53.656;7.276;2023-02-01T01:46:26;37.05;;;7.13;;
28335;SDS011;15592;53.656;7.276;2023-02-01T01:49:04;37.03;;;6.82;;
28335;SDS011;15592;53.656;7.276;2023-02-01T01:51:47;38.88;;;6.82;;
28335;SDS011;15592;53.656;7.276;2023-02-01T01:54:52;43.42;;;6.88;;
28335;SDS011;15592;53.656;7.276;2023-02-01T01:57:14;31.08;;;6.95;;
28335;SDS011;15592;53.656;7.276;2023-02-01T01:59:53;40.65;;;6.05;;
28335;SDS011;15592;53.656;7.276;2023-02-01T02:02:24;29.83;;;6.78;;
28335;SDS011;15592;53.656;7.276;2023-02-01T02:04:50;41.42;;;7.63;;
28335;SDS011;15592;53.656;7.276;2023-02-01T02:07:24;29.88;;;5.35;;
28335;SDS011;15592;53.656;7.276;2023-02-01T02:09:55;35.05;;;6.05;;
28335;SDS011;15592;53.656;7.276;2023-02-01T02:12:21;22.15;;;5.18;;
28335;SDS011;15592;53.656;7.276;2023-02-01T02:14:47;23.02;;;5.18;;
28335;SDS011;15592;53.656;7.276;2023-02-01T02:25:33;28.50;;;4.90;;
28335;SDS011;15592;53.656;7.276;2023-02-01T02:31:37;43.97;;;8.85;;
28335;SDS011;15592;53.656;7.276;2023-02-01T02:42:49;35.65;;;6.97;;
28335;SDS011;15592;53.656;7.276;2023-02-01T02:45:45;42.15;;;7.05;;
28335;SDS011;15592;53.656;7.276;2023-02-01T02:48:42;35.20;;;6.47;;
28335;SDS011;15592;53.656;7.276;2023-02-01T02:54:20;24.77;;;5.43;;
28335;SDS011;15592;53.656;7.276;2023-02-01T02:59:55;25.77;;;4.88;;
28335;SDS011;15592;53.656;7.276;2023-02-01T03:02:43;25.27;;;4.88;;
28335;SDS011;15592;53.656;7.276;2023-02-01T03:05:35;19.48;;;4.63;;
28335;SDS011;15592;53.656;7.276;2023-02-01T03:08:10;30.85;;;5.60;;
28335;SDS011;15592;53.656;7.276;2023-02-01T03:11:00;30.38;;;5.82;;
28335;SDS011;15592;53.656;7.276;2023-02-01T03:24:21;49.20;;;7.97;;
28335;SDS011;15592;53.656;7.276;2023-02-01T03:27:05;52.92;;;7.90;;
28335;SDS011;15592;53.656;7.276;2023-02-01T03:29:52;52.28;;;8.52;;
28335;SDS011;15592;53.656;7.276;2023-02-01T03:32:23;53.63;;;7.80;;
28335;SDS011;15592;53.656;7.276;2023-02-01T03:34:49;39.22;;;7.05;;
28335;SDS011;15592;53.656;7.276;2023-02-01T03:37:25;51.58;;;7.82;;
28335;SDS011;15592;53.656;7.276;2023-02-01T03:39:53;46.88;;;8.35;;
28335;SDS011;15592;53.656;7.276;2023-02-01T03:42:32;58.67;;;9.63;;
28335;SDS011;15592;53.656;7.276;2023-02-01T03:45:10;49.67;;;9.95;;
28335;SDS011;15592;53.656;7.276;2023-02-01T03:47:43;43.88;;;9.18;;
28335;SDS011;15592;53.656;7.276;2023-02-01T03:50:13;51.00;;;8.68;;
28335;SDS011;15592;53.656;7.276;2023-02-01T03:52:54;51.75;;;9.27;;
28335;SDS011;15592;53.656;7.276;2023-02-01T03:55:40;58.53;;;7.82;;
28335;SDS011;15592;53.656;7.276;2023-02-01T03:58:08;46.45;;;8.45;;
28335;SDS011;15592;53.656;7.276;2023-02-01T04:00:37;39.90;;;6.85;;
28335;SDS011;15592;53.656;7.276;2023-02-01T04:03:03;41.17;;;7.28;;
28335;SDS011;15592;53.656;7.276;2023-02-01T04:05:30;37.08;;;7.20;;
28335;SDS011;15592;53.656;7.276;2023-02-01T04:07:56;36.67;;;6.35;;
28335;SDS011;15592;53.656;7.276;2023-02-01T04:10:22;35.72;;;7.00;;
28335;SDS011;15592;53.656;7.276;2023-02-01T04:12:48;36.03;;;6.57;;
28335;SDS011;15592;53.656;7.276;2023-02-01T04:15:13;40.25;;;7.85;;
28335;SDS011;15592;53.656;7.276;2023-02-01T04:17:39;38.13;;;7.63;;
28335;SDS011;15592;53.656;7.276;2023-02-01T04:20:05;29.35;;;6.25;;
28335;SDS011;15592;53.656;7.276;2023-02-01T04:22:31;33.20;;;6.78;;
28335;SDS011;15592;53.656;7.276;2023-02-01T04:24:56;29.33;;;5.85;;
28335;SDS011;15592;53.656;7.276;2023-02-01T04:27:22;28.13;;;6.20;;
28335;SDS011;15592;53.656;7.276;2023-02-01T04:29:48;22.13;;;5.40;;
28335;SDS011;15592;53.656;7.276;2023-02-01T04:32:17;33.38;;;6.30;;
28335;SDS011;15592;53.656;7.276;2023-02-01T04:34:42;36.00;;;6.72;;
28335;SDS011;15592;53.656;7.276;2023-02-01T04:37:08;36.63;;;6.97;;
28335;SDS011;15592;53.656;7.276;2023-02-01T04:39:34;33.15;;;6.20;;
28335;SDS011;15592;53.656;7.276;2023-02-01T04:41:59;28.02;;;5.38;;
28335;SDS011;15592;53.656;7.276;2023-02-01T04:44:25;29.67;;;6.15;;
28335;SDS011;15592;53.656;7.276;2023-02-01T04:46:50;38.17;;;6.85;;
28335;SDS011;15592;53.656;7.276;2023-02-01T04:49:16;38.65;;;6.90;;
28335;SDS011;15592;53.656;7.276;2023-02-01T04:51:42;36.03;;;6.43;;
28335;SDS011;15592;53.656;7.276;2023-02-01T04:54:09;41.83;;;6.55;;
28335;SDS011;15592;53.656;7.276;2023-02-01T04:56:36;33.20;;;6.43;;
28335;SDS011;15592;53.656;7.276;2023-02-01T04:59:02;27.98;;;5.78;;
28335;SDS011;15592;53.656;7.276;2023-02-01T05:01:28;33.78;;;6.05;;
28335;SDS011;15592;53.656;7.276;2023-02-01T05:03:54;26.88;;;5.28;;
28335;SDS011;15592;53.656;7.276;2023-02-01T05:06:20;33.60;;;6.05;;
28335;SDS011;15592;53.656;7.276;2023-02-01T05:08:46;25.67;;;5.07;;
28335;SDS011;15592;53.656;7.276;2023-02-01T05:11:11;31.42;;;5.80;;
28335;SDS011;15592;53.656;7.276;2023-02-01T05:14:00;25.70;;;5.90;;
28335;SDS011;15592;53.656;7.276;2023-02-01T05:16:26;21.38;;;5.25;;
28335;SDS011;15592;53.656;7.276;2023-02-01T05:18:52;25.08;;;5.28;;
28335;SDS011;15592;53.656;7.276;2023-02-01T05:21:18;30.98;;;5.82;;
28335;SDS011;15592;53.656;7.276;2023-02-01T05:23:44;19.98;;;5.05;;
28335;SDS011;15592;53.656;7.276;2023-02-01T05:26:28;25.25;;;4.78;;
28335;SDS011;15592;53.656;7.276;2023-02-01T05:28:53;29.63;;;5.55;;
28335;SDS011;15592;53.656;7.276;2023-02-01T05:31:19;27.75;;;6.05;;
28335;SDS011;15592;53.656;7.276;2023-02-01T05:33:45;22.95;;;5.10;;
28335;SDS011;15592;53.656;7.276;2023-02-01T05:36:11;33.30;;;6.57;;
28335;SDS011;15592;53.656;7.276;2023-02-01T05:38:36;32.72;;;6.25;;
28335;SDS011;15592;53.656;7.276;2023-02-01T05:41:02;35.92;;;6.70;;
28335;SDS011;15592;53.656;7.276;2023-02-01T05:43:27;30.42;;;6.22;;
28335;SDS011;15592;53.656;7.276;2023-02-01T05:45:56;30.65;;;5.88;;
28335;SDS011;15592;53.656;7.276;2023-02-01T05:48:21;29.05;;;5.40;;
28335;SDS011;15592;53.656;7.276;2023-02-01T05:50:47;38.75;;;6.55;;
28335;SDS011;15592;53.656;7.276;2023-02-01T05:53:12;20.45;;;4.85;;
28335;SDS011;15592;53.656;7.276;2023-02-01T05:55:38;25.15;;;4.88;;
28335;SDS011;15592;53.656;7.276;2023-02-01T05:58:04;28.77;;;5.65;;
28335;SDS011;15592;53.656;7.276;2023-02-01T06:00:30;25.13;;;6.05;;
28335;SDS011;15592;53.656;7.276;2023-02-01T06:02:56;33.53;;;5.35;;
28335;SDS011;15592;53.656;7.276;2023-02-01T06:05:21;37.40;;;6.28;;
28335;SDS011;15592;53.656;7.276;2023-02-01T06:07:47;34.28;;;5.78;;
28335;SDS011;15592;53.656;7.276;2023-02-01T06:10:14;36.15;;;5.68;;
28335;SDS011;15592;53.656;7.276;2023-02-01T06:12:41;29.67;;;6.20;;
28335;SDS011;15592;53.656;7.276;2023-02-01T06:15:07;37.55;;;6.78;;
28335;SDS011;15592;53.656;7.276;2023-02-01T06:17:33;30.98;;;6.97;;
28335;SDS011;15592;53.656;7.276;2023-02-01T06:19:59;28.42;;;5.13;;
28335;SDS011;15592;53.656;7.276;2023-02-01T06:22:24;33.25;;;7.15;;
28335;SDS011;15592;53.656;7.276;2023-02-01T06:24:50;27.55;;;5.93;;
28335;SDS011;15592;53.656;7.276;2023-02-01T06:27:15;23.25;;;5.50;;
28335;SDS011;15592;53.656;7.276;2023-02-01T06:29:41;29.13;;;5.80;;
28335;SDS011;15592;53.656;7.276;2023-02-01T06:32:06;35.50;;;6.45;;
28335;SDS011;15592;53.656;7.276;2023-02-01T06:34:32;28.33;;;5.10;;
28335;SDS011;15592;53.656;7.276;2023-02-01T06:36:59;33.60;;;5.50;;
28335;SDS011;15592;53.656;7.276;2023-02-01T06:39:24;30.98;;;5.35;;
28335;SDS011;15592;53.656;7.276;2023-02-01T06:41:52;29.17;;;5.35;;
28335;SDS011;15592;53.656;7.276;2023-02-01T06:44:17;22.45;;;5.40;;
28335;SDS011;15592;53.656;7.276;2023-02-01T06:46:43;29.02;;;5.63;;
28335;SDS011;15592;53.656;7.276;2023-02-01T06:49:09;21.58;;;5.00;;
28335;SDS011;15592;53.656;7.276;2023-02-01T06:51:34;22.98;;;4.78;;
28335;SDS011;15592;53.656;7.276;2023-02-01T06:54:00;19.05;;;4.32;;
28335;SDS011;15592;53.656;7.276;2023-02-01T06:56:26;20.50;;;4.72;;
28335;SDS011;15592;53.656;7.276;2023-02-01T06:58:52;24.80;;;5.25;;
28335;SDS011;15592;53.656;7.276;2023-02-01T07:01:18;21.52;;;5.20;;
28335;SDS011;15592;53.656;7.276;2023-02-01T07:03:50;23.67;;;5.30;;
28335;SDS011;15592;53.656;7.276;2023-02-01T07:06:16;19.80;;;5.40;;
28335;SDS011;15592;53.656;7.276;2023-02-01T07:08:42;19.35;;;4.32;;
28335;SDS011;15592;53.656;7.276;2023-02-01T07:11:09;22.60;;;4.70;;
28335;SDS011;15592;53.656;7.276;2023-02-01T07:13:36;25.10;;;5.13;;
28335;SDS011;15592;53.656;7.276;2023-02-01T07:16:02;28.08;;;5.10;;
28335;SDS011;15592;53.656;7.276;2023-02-01T07:18:30;29.35;;;5.22;;
28335;SDS011;15592;53.656;7.276;2023-02-01T07:20:56;25.00;;;5.10;;
28335;SDS011;15592;53.656;7.276;2023-02-01T07:23:22;19.33;;;3.90;;
28335;SDS011;15592;53.656;7.276;2023-02-01T07:25:48;20.48;;;4.35;;
28335;SDS011;15592;53.656;7.276;2023-02-01T07:28:17;18.73;;;4.40;;
28335;SDS011;15592;53.656;7.276;2023-02-01T07:30:43;21.63;;;4.82;;
28335;SDS011;15592;53.656;7.276;2023-02-01T07:33:15;26.63;;;4.65;;
28335;SDS011;15592;53.656;7.276;2023-02-01T07:35:45;23.40;;;5.38;;
28335;SDS011;15592;53.656;7.276;2023-02-01T07:38:11;20.30;;;4.43;;
28335;SDS011;15592;53.656;7.276;2023-02-01T07:40:40;26.48;;;5.82;;
28335;SDS011;15592;53.656;7.276;2023-02-01T07:43:05;25.95;;;4.38;;
28335;SDS011;15592;53.656;7.276;2023-02-01T07:45:32;21.13;;;4.50;;
28335;SDS011;15592;53.656;7.276;2023-02-01T07:47:58;21.92;;;4.07;;
28335;SDS011;15592;53.656;7.276;2023-02-01T07:50:24;21.35;;;5.20;;
28335;SDS011;15592;53.656;7.276;2023-02-01T07:52:50;17.05;;;3.95;;
28335;SDS011;15592;53.656;7.276;2023-02-01T07:55:15;18.98;;;4.03;;
28335;SDS011;15592;53.656;7.276;2023-02-01T07:57:41;20.80;;;4.30;;
28335;SDS011;15592;53.656;7.276;2023-02-01T08:00:07;22.80;;;4.57;;
28335;SDS011;15592;53.656;7.276;2023-02-01T08:02:52;19.52;;;3.67;;
28335;SDS011;15592;53.656;7.276;2023-02-01T08:05:18;24.92;;;4.30;;
28335;SDS011;15592;53.656;7.276;2023-02-01T08:07:44;15.90;;;4.32;;
28335;SDS011;15592;53.656;7.276;2023-02-01T08:10:14;21.60;;;4.28;;
28335;SDS011;15592;53.656;7.276;2023-02-01T08:12:46;21.58;;;4.00;;
28335;SDS011;15592;53.656;7.276;2023-02-01T08:15:16;23.50;;;4.57;;
28335;SDS011;15592;53.656;7.276;2023-02-01T08:17:48;24.52;;;4.70;;
28335;SDS011;15592;53.656;7.276;2023-02-01T08:20:15;18.40;;;4.50;;
28335;SDS011;15592;53.656;7.276;2023-02-01T08:22:42;19.27;;;3.95;;
28335;SDS011;15592;53.656;7.276;2023-02-01T08:25:13;20.15;;;4.05;;
28335;SDS011;15592;53.656;7.276;2023-02-01T08:27:38;18.50;;;4.43;;
28335;SDS011;15592;53.656;7.276;2023-02-01T08:30:16;22.45;;;4.68;;
28335;SDS011;15592;53.656;7.276;2023-02-01T08:32:47;27.73;;;5.03;;
28335;SDS011;15592;53.656;7.276;2023-02-01T08:35:13;24.02;;;5.15;;
28335;SDS011;15592;53.656;7.276;2023-02-01T08:37:51;23.35;;;4.32;;
28335;SDS011;15592;53.656;7.276;2023-02-01T08:40:16;26.63;;;5.68;;
28335;SDS011;15592;53.656;7.276;2023-02-01T08:42:42;26.67;;;5.40;;
28335;SDS011;15592;53.656;7.276;2023-02-01T08:45:36;19.00;;;4.80;;
28335;SDS011;15592;53.656;7.276;2023-02-01T08:48:01;36.17;;;5.88;;
28335;SDS011;15592;53.656;7.276;2023-02-01T08:50:27;27.52;;;5.68;;
28335;SDS011;15592;53.656;7.276;2023-02-01T08:52:53;21.98;;;4.72;;
28335;SDS011;15592;53.656;7.276;2023-02-01T08:55:19;26.60;;;4.85;;
28335;SDS011;15592;53.656;7.276;2023-02-01T08:57:45;29.50;;;5.45;;
28335;SDS011;15592;53.656;7.276;2023-02-01T09:00:12;18.20;;;4.53;;
28335;SDS011;15592;53.656;7.276;2023-02-01T09:02:40;22.90;;;4.73;;
28335;SDS011;15592;53.656;7.276;2023-02-01T09:05:06;31.10;;;6.22;;
28335;SDS011;15592;53.656;7.276;2023-02-01T09:07:35;29.60;;;6.00;;
28335;SDS011;15592;53.656;7.276;2023-02-01T09:10:00;28.95;;;5.70;;
28335;SDS011;15592;53.656;7.276;2023-02-01T09:12:30;30.13;;;5.75;;
28335;SDS011;15592;53.656;7.276;2023-02-01T09:14:58;22.88;;;5.05;;
28335;SDS011;15592;53.656;7.276;2023-02-01T09:17:27;27.17;;;5.60;;
28335;SDS011;15592;53.656;7.276;2023-02-01T09:19:54;26.23;;;5.53;;
28335;SDS011;15592;53.656;7.276;2023-02-01T09:22:20;33.30;;;6.05;;
28335;SDS011;15592;53.656;7.276;2023-02-01T09:24:46;34.78;;;6.13;;
28335;SDS011;15592;53.656;7.276;2023-02-01T09:27:11;29.55;;;5.65;;
28335;SDS011;15592;53.656;7.276;2023-02-01T09:29:37;32.03;;;5.68;;
28335;SDS011;15592;53.656;7.276;2023-02-01T09:32:11;34.00;;;5.82;;
28335;SDS011;15592;53.656;7.276;2023-02-01T09:34:37;36.50;;;6.60;;
28335;SDS011;15592;53.656;7.276;2023-02-01T09:37:03;37.83;;;6.03;;
28335;SDS011;15592;53.656;7.276;2023-02-01T09:39:28;38.20;;;7.00;;
28335;SDS011;15592;53.656;7.276;2023-02-01T09:42:08;39.65;;;6.75;;
28335;SDS011;15592;53.656;7.276;2023-02-01T09:44:57;47.10;;;7.57;;
28335;SDS011;15592;53.656;7.276;2023-02-01T09:47:34;37.22;;;6.13;;
28335;SDS011;15592;53.656;7.276;2023-02-01T09:50:05;36.95;;;6.68;;
28335;SDS011;15592;53.656;7.276;2023-02-01T09:58:27;34.30;;;6.60;;
28335;SDS011;15592;53.656;7.276;2023-02-01T10:00:58;42.28;;;7.15;;
28335;SDS011;15592;53.656;7.276;2023-02-01T10:03:32;31.52;;;6.10;;
28335;SDS011;15592;53.656;7.276;2023-02-01T10:08:44;38.67;;;7.10;;
28335;SDS011;15592;53.656;7.276;2023-02-01T10:22:00;26.15;;;5.00;;
28335;SDS011;15592;53.656;7.276;2023-02-01T10:29:34;23.63;;;3.95;;
28335;SDS011;15592;53.656;7.276;2023-02-01T10:32:08;17.30;;;3.75;;
28335;SDS011;15592;53.656;7.276;2023-02-01T10:34:46;20.90;;;4.00;;
28335;SDS011;15592;53.656;7.276;2023-02-01T10:39:49;16.35;;;3.22;;
28335;SDS011;15592;53.656;7.276;2023-02-01T10:42:20;13.90;;;3.20;;
28335;SDS011;15592;53.656;7.276;2023-02-01T10:44:50;11.27;;;2.58;;
28335;SDS011;15592;53.656;7.276;2023-02-01T10:47:15;12.93;;;3.03;;
28335;SDS011;15592;53.656;7.276;2023-02-01T10:49:58;21.08;;;4.18;;
28335;SDS011;15592;53.656;7.276;2023-02-01T10:57:57;17.25;;;2.47;;
28335;SDS011;15592;53.656;7.276;2023-02-01T11:00:25;10.57;;;1.75;;
28335;SDS011;15592;53.656;7.276;2023-02-01T11:02:53;9.13;;;1.70;;
28335;SDS011;15592;53.656;7.276;2023-02-01T11:05:19;15.60;;;2.13;;
28335;SDS011;15592;53.656;7.276;2023-02-01T11:07:51;9.70;;;1.42;;
28335;SDS011;15592;53.656;7.276;2023-02-01T11:10:36;8.07;;;1.70;;
28335;SDS011;15592;53.656;7.276;2023-02-01T11:13:04;5.18;;;1.13;;
28335;SDS011;15592;53.656;7.276;2023-02-01T11:15:30;6.22;;;1.50;;
28335;SDS011;15592;53.656;7.276;2023-02-01T11:17:55;6.28;;;2.00;;
28335;SDS011;15592;53.656;7.276;2023-02-01T11:20:35;7.93;;;1.33;;
28335;SDS011;15592;53.656;7.276;2023-02-01T11:23:04;2.25;;;1.00;;
28335;SDS011;15592;53.656;7.276;2023-02-01T11:25:31;6.93;;;1.15;;
28335;SDS011;15592;53.656;7.276;2023-02-01T11:28:00;5.05;;;1.02;;
28335;SDS011;15592;53.656;7.276;2023-02-01T11:32:52;3.50;;;1.00;;
28335;SDS011;15592;53.656;7.276;2023-02-01T11:35:19;4.60;;;1.17;;
28335;SDS011;15592;53.656;7.276;2023-02-01T11:37:48;6.15;;;1.15;;
28335;SDS011;15592;53.656;7.276;2023-02-01T11:42:56;3.85;;;1.00;;
28335;SDS011;15592;53.656;7.276;2023-02-01T11:45:27;5.05;;;1.30;;
28335;SDS011;15592;53.656;7.276;2023-02-01T11:47:55;3.70;;;1.27;;
28335;SDS011;15592;53.656;7.276;2023-02-01T11:50:34;5.07;;;1.30;;
28335;SDS011;15592;53.656;7.276;2023-02-01T12:01:21;5.43;;;1.30;;
28335;SDS011;15592;53.656;7.276;2023-02-01T12:07:16;7.05;;;1.40;;
28335;SDS011;15592;53.656;7.276;2023-02-01T12:32:57;15.48;;;3.10;;
28335;SDS011;15592;53.656;7.276;2023-02-01T12:35:44;18.90;;;3.08;;
28335;SDS011;15592;53.656;7.276;2023-02-01T12:47:24;14.88;;;3.38;;
28335;SDS011;15592;53.656;7.276;2023-02-01T12:49:47;13.93;;;3.10;;
28335;SDS011;15592;53.656;7.276;2023-02-01T12:53:01;18.05;;;3.60;;
28335;SDS011;15592;53.656;7.276;2023-02-01T12:55:34;20.35;;;4.15;;
28335;SDS011;15592;53.656;7.276;2023-02-01T13:00:34;19.40;;;4.07;;
28335;SDS011;15592;53.656;7.276;2023-02-01T13:08:45;29.17;;;4.93;;
28335;SDS011;15592;53.656;7.276;2023-02-01T13:11:24;34.92;;;5.30;;
28335;SDS011;15592;53.656;7.276;2023-02-01T13:16:54;34.35;;;5.50;;
28335;SDS011;15592;53.656;7.276;2023-02-01T13:19:57;39.60;;;6.25;;
28335;SDS011;15592;53.656;7.276;2023-02-01T13:25:13;23.80;;;5.40;;
28335;SDS011;15592;53.656;7.276;2023-02-01T13:27:42;25.88;;;5.53;;
28335;SDS011;15592;53.656;7.276;2023-02-01T13:30:22;30.23;;;5.75;;
28335;SDS011;15592;53.656;7.276;2023-02-01T13:43:55;44.45;;;6.95;;
28335;SDS011;15592;53.656;7.276;2023-02-01T13:46:34;27.52;;;5.32;;
28335;SDS011;15592;53.656;7.276;2023-02-01T13:49:13;33.33;;;6.25;;
28335;SDS011;15592;53.656;7.276;2023-02-01T13:51:48;43.85;;;7.07;;
28335;SDS011;15592;53.656;7.276;2023-02-01T13:54:49;31.58;;;5.97;;
28335;SDS011;15592;53.656;7.276;2023-02-01T14:08:02;33.67;;;6.40;;
28335;SDS011;15592;53.656;7.276;2023-02-01T14:23:41;31.38;;;5.90;;
28335;SDS011;15592;53.656;7.276;2023-02-01T14:26:10;32.17;;;6.03;;
28335;SDS011;15592;53.656;7.276;2023-02-01T14:28:54;28.42;;;5.25;;
28335;SDS011;15592;53.656;7.276;2023-02-01T14:31:30;36.50;;;7.00;;
28335;SDS011;15592;53.656;7.276;2023-02-01T14:36:50;30.60;;;5.70;;
28335;SDS011;15592;53.656;7.276;2023-02-01T14:39:20;28.38;;;4.60;;
28335;SDS011;15592;53.656;7.276;2023-02-01T14:41:51;25.38;;;5.53;;
28335;SDS011;15592;53.656;7.276;2023-02-01T14:44:25;35.75;;;5.40;;
28335;SDS011;15592;53.656;7.276;2023-02-01T14:47:06;21.63;;;4.80;;
28335;SDS011;15592;53.656;7.276;2023-02-01T14:52:36;31.45;;;5.03;;
28335;SDS011;15592;53.656;7.276;2023-02-01T14:57:52;26.05;;;4.68;;
28335;SDS011;15592;53.656;7.276;2023-02-01T15:00:25;36.33;;;5.80;;
28335;SDS011;15592;53.656;7.276;2023-02-01T15:02:56;36.10;;;5.55;;
28335;SDS011;15592;53.656;7.276;2023-02-01T15:05:52;34.28;;;5.45;;
28335;SDS011;15592;53.656;7.276;2023-02-01T15:08:24;31.42;;;5.82;;
28335;SDS011;15592;53.656;7.276;2023-02-01T15:10:53;28.48;;;5.47;;
28335;SDS011;15592;53.656;7.276;2023-02-01T15:13:24;32.78;;;6.90;;
28335;SDS011;15592;53.656;7.276;2023-02-01T15:18:31;37.05;;;6.22;;
28335;SDS011;15592;53.656;7.276;2023-02-01T15:20:58;27.63;;;5.53;;
28335;SDS011;15592;53.656;7.276;2023-02-01T15:23:25;21.15;;;4.28;;
28335;SDS011;15592;53.656;7.276;2023-02-01T15:25:51;32.28;;;4.60;;
28335;SDS011;15592;53.656;7.276;2023-02-01T15:28:17;39.95;;;4.97;;
28335;SDS011;15592;53.656;7.276;2023-02-01T15:30:53;33.97;;;5.32;;
28335;SDS011;15592;53.656;7.276;2023-02-01T15:33:27;33.92;;;4.78;;
28335;SDS011;15592;53.656;7.276;2023-02-01T15:36:16;27.73;;;4.75;;
28335;SDS011;15592;53.656;7.276;2023-02-01T15:38:47;41.58;;;6.60;;
28335;SDS011;15592;53.656;7.276;2023-02-01T15:41:16;44.60;;;7.45;;
28335;SDS011;15592;53.656;7.276;2023-02-01T15:43:49;47.15;;;7.18;;
28335;SDS011;15592;53.656;7.276;2023-02-01T15:46:50;41.97;;;7.43;;
28335;SDS011;15592;53.656;7.276;2023-02-01T15:51:47;33.88;;;6.15;;
28335;SDS011;15592;53.656;7.276;2023-02-01T15:54:17;47.58;;;8.20;;
28335;SDS011;15592;53.656;7.276;2023-02-01T15:56:51;31.88;;;5.78;;
28335;SDS011;15592;53.656;7.276;2023-02-01T15:59:24;24.95;;;5.78;;
28335;SDS011;15592;53.656;7.276;2023-02-01T16:01:55;36.63;;;7.03;;
28335;SDS011;15592;53.656;7.276;2023-02-01T16:04:22;35.28;;;5.93;;
28335;SDS011;15592;53.656;7.276;2023-02-01T16:09:17;34.45;;;6.18;;
28335;SDS011;15592;53.656;7.276;2023-02-01T16:11:49;40.28;;;7.13;;
28335;SDS011;15592;53.656;7.276;2023-02-01T16:14:16;45.40;;;8.75;;
28335;SDS011;15592;53.656;7.276;2023-02-01T16:16:42;39.97;;;6.53;;
28335;SDS011;15592;53.656;7.276;2023-02-01T16:19:08;45.97;;;7.95;;
28335;SDS011;15592;53.656;7.276;2023-02-01T16:21:33;31.98;;;6.20;;
28335;SDS011;15592;53.656;7.276;2023-02-01T16:23:59;41.63;;;7.25;;
28335;SDS011;15592;53.656;7.276;2023-02-01T16:26:28;39.80;;;6.77;;
28335;SDS011;15592;53.656;7.276;2023-02-01T16:28:58;35.08;;;6.70;;
28335;SDS011;15592;53.656;7.276;2023-02-01T16:31:27;33.88;;;6.72;;
28335;SDS011;15592;53.656;7.276;2023-02-01T16:33:56;38.17;;;6.47;;
28335;SDS011;15592;53.656;7.276;2023-02-01T16:36:22;31.45;;;5.90;;
28335;SDS011;15592;53.656;7.276;2023-02-01T16:38:48;29.08;;;5.93;;
28335;SDS011;15592;53.656;7.276;2023-02-01T16:41:14;37.88;;;7.25;;
28335;SDS011;15592;53.656;7.276;2023-02-01T16:43:41;33.15;;;7.40;;
28335;SDS011;15592;53.656;7.276;2023-02-01T16:46:12;36.85;;;5.85;;
28335;SDS011;15592;53.656;7.276;2023-02-01T16:48:46;44.97;;;7.15;;
28335;SDS011;15592;53.656;7.276;2023-02-01T16:51:16;34.03;;;6.32;;
28335;SDS011;15592;53.656;7.276;2023-02-01T16:53:42;37.63;;;7.40;;
28335;SDS011;15592;53.656;7.276;2023-02-01T16:56:11;29.75;;;5.93;;
28335;SDS011;15592;53.656;7.276;2023-02-01T16:58:49;30.42;;;6.68;;
28335;SDS011;15592;53.656;7.276;2023-02-01T17:01:17;37.45;;;6.88;;
28335;SDS011;15592;53.656;7.276;2023-02-01T17:03:43;32.80;;;5.80;;
28335;SDS011;15592;53.656;7.276;2023-02-01T17:06:11;42.58;;;6.90;;
28335;SDS011;15592;53.656;7.276;2023-02-01T17:08:43;34.83;;;6.40;;
28335;SDS011;15592;53.656;7.276;2023-02-01T17:11:11;24.55;;;5.22;;
28335;SDS011;15592;53.656;7.276;2023-02-01T17:13:38;27.75;;;5.65;;
28335;SDS011;15592;53.656;7.276;2023-02-01T17:16:13;33.85;;;5.68;;
28335;SDS011;15592;53.656;7.276;2023-02-01T17:18:40;28.73;;;6.35;;
28335;SDS011;15592;53.656;7.276;2023-02-01T17:21:06;39.67;;;6.25;;
28335;SDS011;15592;53.656;7.276;2023-02-01T17:23:33;30.92;;;5.90;;
28335;SDS011;15592;53.656;7.276;2023-02-01T17:25:59;29.88;;;5.93;;
28335;SDS011;15592;53.656;7.276;2023-02-01T17:28:26;33.65;;;6.03;;
28335;SDS011;15592;53.656;7.276;2023-02-01T17:30:51;27.33;;;5.57;;
28335;SDS011;15592;53.656;7.276;2023-02-01T17:33:21;38.28;;;6.57;;
28335;SDS011;15592;53.656;7.276;2023-02-01T17:35:50;33.17;;;5.72;;
28335;SDS011;15592;53.656;7.276;2023-02-01T17:38:17;34.70;;;6.00;;
28335;SDS011;15592;53.656;7.276;2023-02-01T17:40:43;42.15;;;6.95;;
28335;SDS011;15592;53.656;7.276;2023-02-01T17:43:15;39.00;;;7.60;;
28335;SDS011;15592;53.656;7.276;2023-02-01T17:48:20;42.75;;;7.32;;
28335;SDS011;15592;53.656;7.276;2023-02-01T17:50:50;33.20;;;6.25;;
28335;SDS011;15592;53.656;7.276;2023-02-01T17:53:22;23.58;;;6.18;;
28335;SDS011;15592;53.656;7.276;2023-02-01T17:55:48;33.55;;;6.20;;
28335;SDS011;15592;53.656;7.276;2023-02-01T17:58:15;39.78;;;7.18;;
28335;SDS011;15592;53.656;7.276;2023-02-01T18:00:42;39.50;;;7.60;;